Irving, Texas
Current Conditions -  °F | °C
As of 7:09 PM on Saturday 22 Nov 2014 (Local Time) from KDAL Reporting Station
Moderate Rain Moderate Rain  
Wind Chill: 61°   Ceiling: 5000
Heat Index: 61°   Visibility: 6mi
Dew Point: 59°   Wind: 9mph
Humidity: 93%   Direction: 180°S
Pressure: 29.87"   Gusts: NA
Location:  32.81°N, 96.95°W
Report Text: KDAL 230109Z 18008KT 6SM RA BR SCT015 BKN050 OVC070 16/15 A2987 RMK AO2 P0003 T01610150
Loading
Personal Weather Stations






























Interactive Weather Map New forecast layout! Learn more

10-Day Weather Forecast

Advertisements
Track Severe Weather on mobile